UAE370 OMDB-VTBS
Flight info
| Callsign | UAE370 |
|---|---|
| Flight time | N/A |
| Altitude | 37000 |
| Route | IVURO M677 LALDO B505 NADSO B524 ALPOR M504 TELEM A791 BPL T1 BBS N895 BOLUS/N0486F390 N895 BETNO P646 TARED WILLA1C |
| Aircraft | B77W/H-SDE1E2E3FGHIJ2J3J4J5M1RWXY/LB1D1 |
Departure
| Time | 2026-05-06 09:55 |
|---|---|
| Airport | Dubai International Airport (OMDB) |
Arrival
| Time | N/A |
|---|---|
| Airport | Suvarnabhumi Airport (VTBS) |
| Time | Latitude | Longitude | Altitude | Speed | Heading |
|---|---|---|---|---|---|
| 2026-05-06 09:19 | 25.24921 | 55.35830 | 26 ft | 0 kts | 31° |
| 2026-05-06 09:19 | 25.24925 | 55.35832 | 31 ft | 0 kts | 31° |
| 2026-05-06 09:20 | 25.24891 | 55.35894 | 31 ft | 0 kts | 31° |
| 2026-05-06 09:26 | 25.24890 | 55.35894 | 26 ft | 0 kts | 31° |
| 2026-05-06 09:36 | 25.24890 | 55.35893 | 26 ft | 0 kts | 31° |
| 2026-05-06 09:40 | 25.24889 | 55.35893 | 26 ft | 1 kts | 31° |
| 2026-05-06 09:40 | 25.24858 | 55.35872 | 29 ft | 3 kts | 31° |
| 2026-05-06 09:41 | 25.24841 | 55.35860 | 31 ft | 3 kts | 47° |
| 2026-05-06 09:41 | 25.24832 | 55.35844 | 29 ft | 3 kts | 84° |
| 2026-05-06 09:41 | 25.24833 | 55.35823 | 29 ft | 3 kts | 115° |
| 2026-05-06 09:41 | 25.24839 | 55.35812 | 30 ft | 2 kts | 121° |
| 2026-05-06 09:42 | 25.24849 | 55.35794 | 31 ft | 3 kts | 121° |
| 2026-05-06 09:42 | 25.24855 | 55.35782 | 31 ft | 0 kts | 121° |
| 2026-05-06 09:44 | 25.24850 | 55.35791 | 31 ft | 3 kts | 121° |
| 2026-05-06 09:44 | 25.24836 | 55.35816 | 29 ft | 5 kts | 121° |
| 2026-05-06 09:45 | 25.24815 | 55.35854 | 31 ft | 7 kts | 121° |
| 2026-05-06 09:45 | 25.24785 | 55.35908 | 29 ft | 9 kts | 121° |
| 2026-05-06 09:45 | 25.24747 | 55.35976 | 29 ft | 11 kts | 121° |
| 2026-05-06 09:45 | 25.24702 | 55.36056 | 29 ft | 13 kts | 121° |
| 2026-05-06 09:46 | 25.24650 | 55.36150 | 30 ft | 15 kts | 121° |
| 2026-05-06 09:46 | 25.24591 | 55.36255 | 29 ft | 16 kts | 122° |
| 2026-05-06 09:46 | 25.24531 | 55.36362 | 28 ft | 16 kts | 122° |
| 2026-05-06 09:46 | 25.24472 | 55.36469 | 28 ft | 16 kts | 118° |
| 2026-05-06 09:47 | 25.24453 | 55.36591 | 29 ft | 16 kts | 80° |
| 2026-05-06 09:47 | 25.24521 | 55.36687 | 30 ft | 16 kts | 33° |
| 2026-05-06 09:47 | 25.24617 | 55.36753 | 29 ft | 16 kts | 32° |
| 2026-05-06 09:47 | 25.24714 | 55.36820 | 30 ft | 16 kts | 32° |
| 2026-05-06 09:48 | 25.24803 | 55.36895 | 27 ft | 16 kts | 66° |
| 2026-05-06 09:48 | 25.24766 | 55.37008 | 27 ft | 16 kts | 121° |
| 2026-05-06 09:48 | 25.24707 | 55.37114 | 27 ft | 16 kts | 121° |
| 2026-05-06 09:48 | 25.24648 | 55.37220 | 26 ft | 16 kts | 121° |
| 2026-05-06 09:49 | 25.24590 | 55.37324 | 30 ft | 16 kts | 121° |
| 2026-05-06 09:49 | 25.24531 | 55.37430 | 26 ft | 16 kts | 121° |
| 2026-05-06 09:49 | 25.24472 | 55.37535 | 29 ft | 16 kts | 121° |
| 2026-05-06 09:49 | 25.24414 | 55.37640 | 30 ft | 16 kts | 121° |
| 2026-05-06 09:50 | 25.24358 | 55.37740 | 26 ft | 16 kts | 121° |
| 2026-05-06 09:50 | 25.24298 | 55.37847 | 26 ft | 16 kts | 122° |
| 2026-05-06 09:50 | 25.24238 | 55.37952 | 26 ft | 16 kts | 122° |
| 2026-05-06 09:50 | 25.24179 | 55.38056 | 27 ft | 16 kts | 122° |
| 2026-05-06 09:51 | 25.24119 | 55.38162 | 27 ft | 16 kts | 122° |
| 2026-05-06 09:51 | 25.24060 | 55.38266 | 26 ft | 16 kts | 122° |
| 2026-05-06 09:51 | 25.23999 | 55.38370 | 27 ft | 16 kts | 122° |
| 2026-05-06 09:51 | 25.23939 | 55.38475 | 29 ft | 16 kts | 122° |
| 2026-05-06 09:52 | 25.23879 | 55.38580 | 29 ft | 16 kts | 122° |
| 2026-05-06 09:52 | 25.23822 | 55.38685 | 26 ft | 16 kts | 121° |
| 2026-05-06 09:52 | 25.23763 | 55.38791 | 26 ft | 16 kts | 122° |
| 2026-05-06 09:52 | 25.23703 | 55.38896 | 27 ft | 16 kts | 122° |
| 2026-05-06 09:53 | 25.23644 | 55.39002 | 27 ft | 16 kts | 122° |
| 2026-05-06 09:53 | 25.23587 | 55.39108 | 27 ft | 16 kts | 121° |
| 2026-05-06 09:53 | 25.23529 | 55.39215 | 27 ft | 16 kts | 123° |
| 2026-05-06 09:53 | 25.23485 | 55.39309 | 27 ft | 12 kts | 92° |
| 2026-05-06 09:54 | 25.23538 | 55.39373 | 29 ft | 12 kts | 30° |
| 2026-05-06 09:54 | 25.23613 | 55.39406 | 32 ft | 12 kts | 355° |
| 2026-05-06 09:54 | 25.23669 | 55.39343 | 32 ft | 12 kts | 301° |
| 2026-05-06 09:54 | 25.23744 | 55.39205 | 31 ft | 42 kts | 301° |
| 2026-05-06 09:55 | 25.24026 | 55.38701 | 28 ft | 110 kts | 302° |
| 2026-05-06 09:55 | 25.24535 | 55.37787 | 29 ft | 164 kts | 302° |
| 2026-05-06 09:55 | 25.25186 | 55.36633 | 116 ft | 194 kts | 303° |
| 2026-05-06 09:55 | 25.25861 | 55.35408 | 811 ft | 189 kts | 303° |
| 2026-05-06 09:56 | 25.26590 | 55.34167 | 1322 ft | 197 kts | 303° |
| 2026-05-06 09:56 | 25.27366 | 55.32880 | 1822 ft | 206 kts | 302° |
| 2026-05-06 09:56 | 25.28230 | 55.31490 | 2033 ft | 232 kts | 304° |
| 2026-05-06 09:56 | 25.29201 | 55.29994 | 2540 ft | 244 kts | 307° |
| 2026-05-06 09:57 | 25.30502 | 55.28815 | 3192 ft | 248 kts | 339° |
| 2026-05-06 09:57 | 25.32209 | 55.28692 | 3874 ft | 245 kts | 12° |
| 2026-05-06 09:57 | 25.33775 | 55.29011 | 4447 ft | 248 kts | 7° |
| 2026-05-06 09:57 | 25.35511 | 55.29196 | 5129 ft | 251 kts | 7° |
| 2026-05-06 09:58 | 25.37270 | 55.29385 | 5771 ft | 257 kts | 6° |
| 2026-05-06 09:58 | 25.39046 | 55.29616 | 6365 ft | 258 kts | 20° |
| 2026-05-06 09:58 | 25.40548 | 55.30680 | 6785 ft | 264 kts | 51° |
| 2026-05-06 09:58 | 25.41739 | 55.32321 | 7046 ft | 281 kts | 53° |
| 2026-05-06 09:59 | 25.42975 | 55.34025 | 7720 ft | 286 kts | 53° |
| 2026-05-06 09:59 | 25.44232 | 55.35747 | 8489 ft | 289 kts | 53° |
| 2026-05-06 09:59 | 25.45501 | 55.37487 | 9294 ft | 289 kts | 53° |
| 2026-05-06 09:59 | 25.46752 | 55.39199 | 10063 ft | 291 kts | 52° |
| 2026-05-06 10:00 | 25.48055 | 55.40982 | 10501 ft | 308 kts | 52° |
| 2026-05-06 10:00 | 25.49444 | 55.42929 | 10668 ft | 334 kts | 53° |
| 2026-05-06 10:00 | 25.50916 | 55.45048 | 10834 ft | 358 kts | 54° |
| 2026-05-06 10:00 | 25.52143 | 55.47491 | 11035 ft | 372 kts | 73° |
| 2026-05-06 10:01 | 25.52449 | 55.50336 | 11735 ft | 377 kts | 94° |
| 2026-05-06 10:01 | 25.51870 | 55.53171 | 12592 ft | 381 kts | 113° |
| 2026-05-06 10:01 | 25.50555 | 55.55718 | 13283 ft | 385 kts | 122° |
| 2026-05-06 10:01 | 25.49064 | 55.58232 | 13886 ft | 395 kts | 123° |
| 2026-05-06 10:02 | 25.47542 | 55.60785 | 14618 ft | 400 kts | 123° |
| 2026-05-06 10:02 | 25.46022 | 55.63390 | 15309 ft | 406 kts | 122° |
| 2026-05-06 10:02 | 25.44497 | 55.66050 | 15997 ft | 412 kts | 122° |
| 2026-05-06 10:02 | 25.42978 | 55.68757 | 16670 ft | 416 kts | 119° |
| 2026-05-06 10:03 | 25.41924 | 55.71739 | 17179 ft | 421 kts | 102° |
| 2026-05-06 10:03 | 25.41361 | 55.74942 | 17779 ft | 428 kts | 101° |
| 2026-05-06 10:03 | 25.40757 | 55.78179 | 18459 ft | 431 kts | 102° |
| 2026-05-06 10:03 | 25.40084 | 55.81440 | 19033 ft | 438 kts | 103° |
| 2026-05-06 10:04 | 25.39371 | 55.84741 | 19568 ft | 444 kts | 103° |
| 2026-05-06 10:04 | 25.38891 | 55.86949 | 19994 ft | 447 kts | 103° |
| 2026-05-06 10:04 | 25.37931 | 55.91403 | 20810 ft | 453 kts | 103° |
| 2026-05-06 10:04 | 25.37202 | 55.94809 | 21368 ft | 458 kts | 103° |
| 2026-05-06 10:05 | 25.36472 | 55.98228 | 21827 ft | 458 kts | 103° |
| 2026-05-06 10:05 | 25.35734 | 56.01689 | 21807 ft | 464 kts | 103° |
| 2026-05-06 10:05 | 25.35242 | 56.03990 | 21816 ft | 463 kts | 103° |
| 2026-05-06 10:05 | 25.34501 | 56.07459 | 21813 ft | 461 kts | 103° |
| 2026-05-06 10:06 | 25.33762 | 56.10915 | 21820 ft | 461 kts | 103° |
| 2026-05-06 10:06 | 25.33023 | 56.14359 | 21820 ft | 461 kts | 103° |
| 2026-05-06 10:06 | 25.32413 | 56.17831 | 21823 ft | 460 kts | 97° |
| 2026-05-06 10:06 | 25.32098 | 56.21351 | 21827 ft | 460 kts | 94° |
| 2026-05-06 10:07 | 25.31893 | 56.24883 | 21820 ft | 461 kts | 93° |
| 2026-05-06 10:07 | 25.31684 | 56.28421 | 21823 ft | 461 kts | 94° |
| 2026-05-06 10:07 | 25.31431 | 56.31951 | 21818 ft | 461 kts | 95° |
| 2026-05-06 10:07 | 25.31144 | 56.35440 | 21826 ft | 461 kts | 95° |
| 2026-05-06 10:08 | 25.30844 | 56.38970 | 21830 ft | 461 kts | 95° |
| 2026-05-06 10:08 | 25.30660 | 56.42510 | 21820 ft | 461 kts | 92° |
| 2026-05-06 10:08 | 25.30572 | 56.46048 | 21824 ft | 461 kts | 91° |
| 2026-05-06 10:08 | 25.30498 | 56.49595 | 21830 ft | 461 kts | 91° |
| 2026-05-06 10:09 | 25.30407 | 56.53142 | 21828 ft | 461 kts | 91° |
| 2026-05-06 10:09 | 25.30228 | 56.56683 | 21825 ft | 462 kts | 96° |
| 2026-05-06 10:09 | 25.29685 | 56.60182 | 21839 ft | 462 kts | 103° |
| 2026-05-06 10:09 | 25.28842 | 56.63603 | 21827 ft | 462 kts | 108° |
| 2026-05-06 10:10 | 25.27687 | 56.66917 | 21822 ft | 461 kts | 112° |
| 2026-05-06 10:10 | 25.26436 | 56.70180 | 21826 ft | 461 kts | 113° |
| 2026-05-06 10:10 | 25.25172 | 56.73438 | 21823 ft | 461 kts | 113° |
| 2026-05-06 10:10 | 25.23907 | 56.76700 | 21819 ft | 461 kts | 113° |
| 2026-05-06 10:11 | 25.22652 | 56.79955 | 21818 ft | 461 kts | 113° |
| 2026-05-06 10:11 | 25.21400 | 56.83224 | 21817 ft | 461 kts | 113° |
| 2026-05-06 10:11 | 25.20156 | 56.86485 | 21816 ft | 461 kts | 112° |
| 2026-05-06 10:11 | 25.18914 | 56.89748 | 21816 ft | 461 kts | 112° |
| 2026-05-06 10:12 | 25.17671 | 56.93017 | 21817 ft | 461 kts | 112° |
| 2026-05-06 10:12 | 25.16444 | 56.96244 | 21813 ft | 461 kts | 112° |
| 2026-05-06 10:12 | 25.15200 | 56.99511 | 21812 ft | 461 kts | 112° |
| 2026-05-06 10:12 | 25.13990 | 57.02686 | 21814 ft | 461 kts | 112° |
| 2026-05-06 10:13 | 25.12745 | 57.05950 | 21814 ft | 461 kts | 112° |
| 2026-05-06 10:13 | 25.11501 | 57.09208 | 21813 ft | 461 kts | 112° |
| 2026-05-06 10:13 | 25.10254 | 57.12471 | 21815 ft | 461 kts | 112° |
| 2026-05-06 10:13 | 25.09006 | 57.15735 | 21814 ft | 461 kts | 112° |
| 2026-05-06 10:14 | 25.07757 | 57.18996 | 21814 ft | 461 kts | 112° |
| 2026-05-06 10:14 | 25.06511 | 57.22249 | 21814 ft | 461 kts | 112° |
| 2026-05-06 10:14 | 25.05261 | 57.25509 | 21813 ft | 461 kts | 112° |
| 2026-05-06 10:14 | 25.04014 | 57.28761 | 21817 ft | 461 kts | 112° |
| 2026-05-06 10:15 | 25.02764 | 57.32016 | 21817 ft | 461 kts | 112° |
| 2026-05-06 10:15 | 25.01514 | 57.35268 | 21814 ft | 461 kts | 112° |
| 2026-05-06 10:15 | 25.00262 | 57.38526 | 21819 ft | 461 kts | 112° |
| 2026-05-06 10:15 | 24.99008 | 57.41783 | 21815 ft | 461 kts | 112° |
| 2026-05-06 10:16 | 24.97755 | 57.45036 | 21813 ft | 461 kts | 112° |
| 2026-05-06 10:16 | 24.96501 | 57.48291 | 21814 ft | 461 kts | 112° |
| 2026-05-06 10:16 | 24.95246 | 57.51545 | 21814 ft | 461 kts | 112° |
| 2026-05-06 10:16 | 24.93993 | 57.54791 | 21814 ft | 461 kts | 112° |
| 2026-05-06 10:17 | 24.92755 | 57.57996 | 21814 ft | 461 kts | 112° |
| 2026-05-06 10:17 | 24.91499 | 57.61245 | 21816 ft | 461 kts | 112° |
| 2026-05-06 10:17 | 24.90242 | 57.64493 | 21816 ft | 461 kts | 112° |
| 2026-05-06 10:17 | 24.88985 | 57.67742 | 21814 ft | 461 kts | 112° |
| 2026-05-06 10:18 | 24.87727 | 57.70989 | 21814 ft | 461 kts | 112° |
| 2026-05-06 10:18 | 24.86467 | 57.74240 | 21813 ft | 461 kts | 112° |
| 2026-05-06 10:18 | 24.85204 | 57.77497 | 21813 ft | 461 kts | 112° |
| 2026-05-06 10:18 | 24.83953 | 57.80754 | 21814 ft | 461 kts | 111° |
| 2026-05-06 10:19 | 24.82905 | 57.84092 | 21808 ft | 461 kts | 105° |
| 2026-05-06 10:19 | 24.82164 | 57.87521 | 21814 ft | 460 kts | 102° |
| 2026-05-06 10:19 | 24.81494 | 57.90912 | 21815 ft | 460 kts | 101° |
| 2026-05-06 10:19 | 24.80819 | 57.94358 | 21814 ft | 460 kts | 101° |
| 2026-05-06 10:20 | 24.80141 | 57.97798 | 21810 ft | 461 kts | 101° |
| 2026-05-06 10:20 | 24.79473 | 58.01143 | 21811 ft | 461 kts | 102° |
| 2026-05-06 10:20 | 24.78777 | 58.04588 | 21812 ft | 461 kts | 102° |
| 2026-05-06 10:20 | 24.78076 | 58.08032 | 21811 ft | 461 kts | 102° |
| 2026-05-06 10:21 | 24.77373 | 58.11471 | 21810 ft | 461 kts | 102° |
| 2026-05-06 10:21 | 24.76665 | 58.14919 | 21811 ft | 461 kts | 102° |
| 2026-05-06 10:21 | 24.75957 | 58.18364 | 21812 ft | 461 kts | 102° |
| 2026-05-06 10:21 | 24.75249 | 58.21805 | 21813 ft | 462 kts | 102° |
| 2026-05-06 10:22 | 24.74538 | 58.25256 | 21814 ft | 462 kts | 102° |
| 2026-05-06 10:22 | 24.73829 | 58.28701 | 21813 ft | 462 kts | 102° |
| 2026-05-06 10:22 | 24.73118 | 58.32144 | 21814 ft | 462 kts | 102° |
| 2026-05-06 10:22 | 24.72407 | 58.35587 | 21814 ft | 462 kts | 102° |
| 2026-05-06 10:23 | 24.71694 | 58.39036 | 21811 ft | 462 kts | 102° |
| 2026-05-06 10:23 | 24.70980 | 58.42483 | 21810 ft | 462 kts | 102° |
| 2026-05-06 10:23 | 24.70267 | 58.45925 | 21811 ft | 462 kts | 102° |
| 2026-05-06 10:23 | 24.69552 | 58.49370 | 21813 ft | 462 kts | 102° |
| 2026-05-06 10:24 | 24.68845 | 58.52772 | 21810 ft | 462 kts | 102° |
| 2026-05-06 10:24 | 24.68126 | 58.56227 | 21812 ft | 462 kts | 102° |
| 2026-05-06 10:24 | 24.67408 | 58.59674 | 21811 ft | 463 kts | 102° |
| 2026-05-06 10:24 | 24.66691 | 58.63115 | 21811 ft | 463 kts | 102° |
| 2026-05-06 10:25 | 24.65971 | 58.66564 | 21808 ft | 463 kts | 102° |
| 2026-05-06 10:25 | 24.65250 | 58.70012 | 21808 ft | 463 kts | 102° |
| 2026-05-06 10:25 | 24.64528 | 58.73462 | 21811 ft | 463 kts | 102° |
| 2026-05-06 10:25 | 24.63805 | 58.76911 | 21812 ft | 463 kts | 102° |
| 2026-05-06 10:26 | 24.63080 | 58.80365 | 21811 ft | 463 kts | 102° |
| 2026-05-06 10:26 | 24.62355 | 58.83817 | 21811 ft | 463 kts | 102° |
| 2026-05-06 10:26 | 24.61631 | 58.87262 | 21811 ft | 463 kts | 102° |
| 2026-05-06 10:26 | 24.60905 | 58.90710 | 21811 ft | 463 kts | 102° |
| 2026-05-06 10:27 | 24.60179 | 58.94151 | 21811 ft | 463 kts | 102° |
| 2026-05-06 10:27 | 24.59451 | 58.97602 | 21810 ft | 463 kts | 102° |
| 2026-05-06 10:27 | 24.58746 | 59.00937 | 21811 ft | 463 kts | 102° |
| 2026-05-06 10:27 | 24.58026 | 59.04344 | 21816 ft | 463 kts | 102° |
| 2026-05-06 10:28 | 24.57295 | 59.07792 | 21807 ft | 463 kts | 102° |
| 2026-05-06 10:28 | 24.56564 | 59.11241 | 21808 ft | 463 kts | 102° |
| 2026-05-06 10:28 | 24.55831 | 59.14695 | 21809 ft | 464 kts | 102° |
| 2026-05-06 10:28 | 24.55099 | 59.18143 | 21808 ft | 464 kts | 102° |
| 2026-05-06 10:29 | 24.54365 | 59.21592 | 21807 ft | 464 kts | 102° |
| 2026-05-06 10:29 | 24.53630 | 59.25048 | 21808 ft | 464 kts | 102° |
| 2026-05-06 10:29 | 24.52897 | 59.28498 | 21807 ft | 464 kts | 102° |
| 2026-05-06 10:29 | 24.52163 | 59.31954 | 21810 ft | 464 kts | 102° |
| 2026-05-06 10:30 | 24.51428 | 59.35410 | 21809 ft | 465 kts | 102° |
| 2026-05-06 10:30 | 24.50692 | 59.38870 | 21811 ft | 465 kts | 102° |
| 2026-05-06 10:30 | 24.49955 | 59.42327 | 21813 ft | 465 kts | 102° |
| 2026-05-06 10:30 | 24.49218 | 59.45779 | 21812 ft | 465 kts | 102° |
| 2026-05-06 10:31 | 24.48488 | 59.49196 | 21810 ft | 465 kts | 102° |
| 2026-05-06 10:31 | 24.47749 | 59.52653 | 21809 ft | 466 kts | 102° |
| 2026-05-06 10:31 | 24.47007 | 59.56117 | 21810 ft | 466 kts | 102° |
| 2026-05-06 10:31 | 24.46265 | 59.59577 | 21812 ft | 466 kts | 102° |
| 2026-05-06 10:32 | 24.45522 | 59.63039 | 21802 ft | 466 kts | 102° |
| 2026-05-06 10:32 | 24.44778 | 59.66499 | 21809 ft | 466 kts | 102° |
| 2026-05-06 10:32 | 24.44034 | 59.69959 | 21808 ft | 466 kts | 102° |
| 2026-05-06 10:32 | 24.43288 | 59.73421 | 21809 ft | 466 kts | 102° |
| 2026-05-06 10:33 | 24.42541 | 59.76882 | 21808 ft | 466 kts | 102° |
| 2026-05-06 10:33 | 24.41795 | 59.80338 | 21809 ft | 466 kts | 102° |
| 2026-05-06 10:33 | 24.41047 | 59.83800 | 21808 ft | 466 kts | 102° |
| 2026-05-06 10:33 | 24.40298 | 59.87261 | 21808 ft | 466 kts | 102° |
| 2026-05-06 10:34 | 24.39548 | 59.90719 | 21803 ft | 466 kts | 102° |
| 2026-05-06 10:34 | 24.38799 | 59.94174 | 21806 ft | 466 kts | 102° |
| 2026-05-06 10:34 | 24.38047 | 59.97637 | 21814 ft | 466 kts | 102° |
| 2026-05-06 10:34 | 24.37316 | 60.01002 | 21801 ft | 466 kts | 102° |
| 2026-05-06 10:35 | 24.36563 | 60.04461 | 21813 ft | 466 kts | 102° |
| 2026-05-06 10:35 | 24.35809 | 60.07921 | 21811 ft | 466 kts | 102° |
| 2026-05-06 10:35 | 24.35052 | 60.11388 | 21812 ft | 467 kts | 102° |
| 2026-05-06 10:35 | 24.34295 | 60.14843 | 21802 ft | 467 kts | 102° |
| 2026-05-06 10:36 | 24.33533 | 60.18303 | 21813 ft | 467 kts | 102° |
| 2026-05-06 10:36 | 24.32781 | 60.21719 | 21811 ft | 467 kts | 102° |
| 2026-05-06 10:36 | 24.32018 | 60.25182 | 21808 ft | 468 kts | 102° |
| 2026-05-06 10:36 | 24.31253 | 60.28649 | 21818 ft | 468 kts | 102° |
| 2026-05-06 10:37 | 24.30487 | 60.32119 | 21805 ft | 468 kts | 102° |
| 2026-05-06 10:37 | 24.29722 | 60.35582 | 21810 ft | 468 kts | 102° |
| 2026-05-06 10:37 | 24.28956 | 60.39047 | 21808 ft | 468 kts | 102° |
| 2026-05-06 10:37 | 24.28189 | 60.42514 | 21818 ft | 468 kts | 102° |
| 2026-05-06 10:38 | 24.27420 | 60.45981 | 21806 ft | 468 kts | 102° |
| 2026-05-06 10:38 | 24.26650 | 60.49449 | 21806 ft | 468 kts | 102° |
| 2026-05-06 10:38 | 24.25882 | 60.52909 | 21818 ft | 468 kts | 102° |
| 2026-05-06 10:38 | 24.25112 | 60.56372 | 21819 ft | 468 kts | 102° |
| 2026-05-06 10:39 | 24.24341 | 60.59833 | 21809 ft | 468 kts | 102° |
| 2026-05-06 10:39 | 24.23569 | 60.63296 | 21813 ft | 468 kts | 102° |
| 2026-05-06 10:39 | 24.22797 | 60.66757 | 21809 ft | 468 kts | 102° |
| 2026-05-06 10:39 | 24.22025 | 60.70216 | 21822 ft | 468 kts | 102° |
| 2026-05-06 10:40 | 24.21250 | 60.73679 | 21812 ft | 468 kts | 102° |
| 2026-05-06 10:40 | 24.20475 | 60.77142 | 21815 ft | 468 kts | 102° |
| 2026-05-06 10:40 | 24.19699 | 60.80605 | 21814 ft | 469 kts | 102° |
| 2026-05-06 10:40 | 24.18921 | 60.84077 | 21824 ft | 469 kts | 102° |
| 2026-05-06 10:41 | 24.18142 | 60.87549 | 21823 ft | 469 kts | 102° |
| 2026-05-06 10:41 | 24.17373 | 60.90972 | 21810 ft | 470 kts | 102° |
| 2026-05-06 10:41 | 24.16593 | 60.94444 | 21812 ft | 470 kts | 102° |
| 2026-05-06 10:41 | 24.15811 | 60.97916 | 21822 ft | 469 kts | 102° |
| 2026-05-06 10:42 | 24.15051 | 61.01291 | 21814 ft | 469 kts | 102° |
| 2026-05-06 10:42 | 24.14269 | 61.04757 | 21821 ft | 469 kts | 102° |
| 2026-05-06 10:42 | 24.13485 | 61.08231 | 21816 ft | 469 kts | 102° |
| 2026-05-06 10:42 | 24.12701 | 61.11696 | 21818 ft | 469 kts | 102° |
| 2026-05-06 10:43 | 24.11917 | 61.15163 | 21816 ft | 469 kts | 102° |
| 2026-05-06 10:43 | 24.11131 | 61.18633 | 21824 ft | 469 kts | 102° |
| 2026-05-06 10:43 | 24.10346 | 61.22097 | 21817 ft | 469 kts | 102° |
| 2026-05-06 10:44 | 24.08770 | 61.29034 | 21821 ft | 469 kts | 102° |
| 2026-05-06 10:44 | 24.08024 | 61.32510 | 21816 ft | 468 kts | 99° |
| 2026-05-06 10:44 | 24.07554 | 61.35983 | 21827 ft | 466 kts | 92° |
| 2026-05-06 10:44 | 24.07338 | 61.39526 | 21828 ft | 466 kts | 91° |
| 2026-05-06 10:45 | 24.07152 | 61.43063 | 21833 ft | 466 kts | 91° |
| 2026-05-06 10:45 | 24.06968 | 61.46605 | 21829 ft | 466 kts | 91° |
| 2026-05-06 10:45 | 24.06779 | 61.50152 | 21820 ft | 467 kts | 91° |
| 2026-05-06 10:45 | 24.06582 | 61.53698 | 21821 ft | 467 kts | 91° |
| 2026-05-06 10:46 | 24.06376 | 61.57249 | 21817 ft | 468 kts | 91° |
| 2026-05-06 10:46 | 24.06166 | 61.60804 | 21825 ft | 468 kts | 91° |
| 2026-05-06 10:46 | 24.05951 | 61.64357 | 21819 ft | 468 kts | 91° |
| 2026-05-06 10:46 | 24.05735 | 61.67913 | 21826 ft | 468 kts | 91° |
| 2026-05-06 10:47 | 24.05518 | 61.71462 | 21823 ft | 468 kts | 91° |
| 2026-05-06 10:47 | 24.05300 | 61.75014 | 21827 ft | 468 kts | 91° |
| 2026-05-06 10:47 | 24.05081 | 61.78563 | 21817 ft | 467 kts | 91° |
| 2026-05-06 10:47 | 24.04863 | 61.82110 | 21822 ft | 467 kts | 91° |
| 2026-05-06 10:48 | 24.04643 | 61.85654 | 21817 ft | 467 kts | 91° |
| 2026-05-06 10:48 | 24.04423 | 61.89198 | 21817 ft | 467 kts | 91° |
| 2026-05-06 10:48 | 24.04202 | 61.92739 | 21822 ft | 466 kts | 91° |
| 2026-05-06 10:48 | 24.03983 | 61.96241 | 21820 ft | 467 kts | 91° |
| 2026-05-06 10:49 | 24.03761 | 61.99779 | 21823 ft | 467 kts | 91° |
| 2026-05-06 10:49 | 24.03545 | 62.03224 | 21819 ft | 467 kts | 91° |
| 2026-05-06 10:49 | 24.03321 | 62.06770 | 21815 ft | 467 kts | 91° |
| 2026-05-06 10:49 | 24.03096 | 62.10315 | 21822 ft | 467 kts | 91° |
| 2026-05-06 10:50 | 24.02870 | 62.13859 | 21824 ft | 467 kts | 91° |
| 2026-05-06 10:50 | 24.02643 | 62.17402 | 21816 ft | 467 kts | 91° |
| 2026-05-06 10:50 | 24.02416 | 62.20953 | 21815 ft | 468 kts | 91° |
| 2026-05-06 10:50 | 24.02187 | 62.24503 | 21825 ft | 468 kts | 91° |
| 2026-05-06 10:51 | 24.01958 | 62.28055 | 21826 ft | 468 kts | 91° |
| 2026-05-06 10:51 | 24.01727 | 62.31614 | 21825 ft | 469 kts | 91° |
| 2026-05-06 10:51 | 24.01496 | 62.35168 | 21825 ft | 469 kts | 91° |
| 2026-05-06 10:51 | 24.01342 | 62.37524 | 21826 ft | 469 kts | 91° |
| 2026-05-06 10:52 | 24.01109 | 62.41084 | 21823 ft | 469 kts | 91° |
| 2026-05-06 10:52 | 24.00875 | 62.44646 | 21815 ft | 469 kts | 91° |
| 2026-05-06 10:52 | 24.00640 | 62.48206 | 21823 ft | 469 kts | 92° |
| 2026-05-06 10:52 | 24.00404 | 62.51770 | 21823 ft | 469 kts | 92° |
| 2026-05-06 10:53 | 24.00167 | 62.55328 | 21818 ft | 470 kts | 91° |
| 2026-05-06 10:53 | 23.99931 | 62.58872 | 21814 ft | 470 kts | 91° |
| 2026-05-06 10:53 | 23.99693 | 62.62439 | 21818 ft | 470 kts | 92° |
| 2026-05-06 10:53 | 23.99454 | 62.66001 | 21820 ft | 470 kts | 92° |
| 2026-05-06 10:54 | 23.99214 | 62.69564 | 21842 ft | 472 kts | 92° |
| 2026-05-06 10:54 | 23.98971 | 62.73174 | 22311 ft | 478 kts | 91° |
| 2026-05-06 10:54 | 23.98726 | 62.76805 | 22917 ft | 481 kts | 91° |
| 2026-05-06 10:54 | 23.98476 | 62.80473 | 23469 ft | 486 kts | 91° |
| 2026-05-06 10:55 | 23.98224 | 62.84174 | 23880 ft | 490 kts | 91° |
| 2026-05-06 10:55 | 23.97968 | 62.87907 | 24332 ft | 494 kts | 92° |
| 2026-05-06 10:55 | 23.97710 | 62.91663 | 24793 ft | 497 kts | 92° |
| 2026-05-06 10:55 | 23.97449 | 62.95437 | 25237 ft | 500 kts | 92° |
| 2026-05-06 10:56 | 23.97185 | 62.99250 | 25661 ft | 504 kts | 92° |
| 2026-05-06 10:56 | 23.96924 | 63.02996 | 26068 ft | 507 kts | 92° |
| 2026-05-06 10:56 | 23.96658 | 63.06806 | 26480 ft | 511 kts | 92° |
| 2026-05-06 10:56 | 23.96386 | 63.10689 | 26891 ft | 514 kts | 92° |
| 2026-05-06 10:57 | 23.96112 | 63.14593 | 27284 ft | 518 kts | 92° |
| 2026-05-06 10:57 | 23.95833 | 63.18540 | 27632 ft | 522 kts | 92° |
| 2026-05-06 10:57 | 23.95552 | 63.22518 | 27998 ft | 526 kts | 92° |
| 2026-05-06 10:57 | 23.95268 | 63.26517 | 28381 ft | 528 kts | 92° |
| 2026-05-06 10:58 | 23.94981 | 63.30536 | 28737 ft | 531 kts | 92° |
| 2026-05-06 10:58 | 23.94691 | 63.34578 | 29076 ft | 534 kts | 92° |
| 2026-05-06 10:58 | 23.94400 | 63.38637 | 29392 ft | 537 kts | 92° |
| 2026-05-06 10:58 | 23.94105 | 63.42722 | 29770 ft | 539 kts | 92° |
| 2026-05-06 10:59 | 23.93812 | 63.46759 | 30123 ft | 539 kts | 92° |
| 2026-05-06 10:59 | 23.93515 | 63.50843 | 30498 ft | 539 kts | 92° |
| 2026-05-06 10:59 | 23.93216 | 63.54932 | 30897 ft | 538 kts | 92° |
| 2026-05-06 10:59 | 23.92917 | 63.59018 | 31309 ft | 538 kts | 92° |
| 2026-05-06 11:00 | 23.92617 | 63.63092 | 31702 ft | 537 kts | 92° |
| 2026-05-06 11:00 | 23.92317 | 63.67161 | 32069 ft | 538 kts | 92° |
| 2026-05-06 11:00 | 23.92016 | 63.71236 | 32451 ft | 538 kts | 92° |
| 2026-05-06 11:00 | 23.91714 | 63.75310 | 32854 ft | 537 kts | 92° |
| 2026-05-06 11:01 | 23.91410 | 63.79384 | 33259 ft | 536 kts | 93° |
| 2026-05-06 11:01 | 23.91107 | 63.83442 | 33655 ft | 536 kts | 93° |
| 2026-05-06 11:01 | 23.90806 | 63.87445 | 34002 ft | 536 kts | 93° |
| 2026-05-06 11:01 | 23.90500 | 63.91502 | 34381 ft | 534 kts | 93° |
| 2026-05-06 11:02 | 23.90195 | 63.95536 | 34779 ft | 531 kts | 93° |
| 2026-05-06 11:02 | 23.89891 | 63.99543 | 35242 ft | 527 kts | 93° |
| 2026-05-06 11:02 | 23.89597 | 64.03404 | 35638 ft | 525 kts | 94° |
| 2026-05-06 11:02 | 23.89294 | 64.07378 | 35975 ft | 524 kts | 94° |
| 2026-05-06 11:03 | 23.88990 | 64.11349 | 36255 ft | 525 kts | 94° |
| 2026-05-06 11:03 | 23.88684 | 64.15324 | 36577 ft | 524 kts | 94° |
| 2026-05-06 11:03 | 23.88379 | 64.19291 | 36782 ft | 526 kts | 94° |
| 2026-05-06 11:04 | 23.87760 | 64.27274 | 36804 ft | 526 kts | 94° |
| 2026-05-06 11:04 | 23.87141 | 64.35192 | 36808 ft | 520 kts | 94° |
| 2026-05-06 11:05 | 23.86527 | 64.43011 | 36822 ft | 519 kts | 94° |
| 2026-05-06 11:05 | 23.85904 | 64.50891 | 36819 ft | 520 kts | 94° |
| 2026-05-06 11:06 | 23.85278 | 64.58763 | 36818 ft | 520 kts | 94° |
| 2026-05-06 11:06 | 23.84647 | 64.66646 | 36816 ft | 522 kts | 94° |
| 2026-05-06 11:07 | 23.84010 | 64.74550 | 36821 ft | 523 kts | 94° |
| 2026-05-06 11:07 | 23.83374 | 64.82460 | 36817 ft | 523 kts | 93° |
| 2026-05-06 11:08 | 23.83250 | 64.90395 | 36828 ft | 522 kts | 88° |
| 2026-05-06 11:08 | 23.83349 | 64.98293 | 36830 ft | 523 kts | 88° |
| 2026-05-06 11:09 | 23.83437 | 65.06142 | 36816 ft | 523 kts | 88° |
| 2026-05-06 11:09 | 23.83490 | 65.14099 | 36817 ft | 524 kts | 88° |
| 2026-05-06 11:10 | 23.83525 | 65.22052 | 36809 ft | 523 kts | 88° |
| 2026-05-06 11:10 | 23.83555 | 65.29999 | 36816 ft | 522 kts | 88° |
| 2026-05-06 11:11 | 23.83583 | 65.37880 | 36809 ft | 522 kts | 88° |
| 2026-05-06 11:11 | 23.83609 | 65.45808 | 36809 ft | 522 kts | 88° |
| 2026-05-06 11:12 | 23.83631 | 65.53729 | 36810 ft | 521 kts | 88° |
| 2026-05-06 11:12 | 23.83648 | 65.61624 | 36821 ft | 521 kts | 88° |
| 2026-05-06 11:13 | 23.83662 | 65.69542 | 36814 ft | 521 kts | 88° |
| 2026-05-06 11:13 | 23.83671 | 65.77469 | 36818 ft | 522 kts | 88° |
| 2026-05-06 11:14 | 23.83676 | 65.85399 | 36823 ft | 522 kts | 88° |
| 2026-05-06 11:14 | 23.83678 | 65.93352 | 36823 ft | 523 kts | 88° |
| 2026-05-06 11:15 | 23.83675 | 66.01189 | 36808 ft | 523 kts | 88° |
| 2026-05-06 11:15 | 23.83668 | 66.09091 | 36813 ft | 523 kts | 89° |
| 2026-05-06 11:16 | 23.83657 | 66.17043 | 36811 ft | 524 kts | 89° |
| 2026-05-06 11:16 | 23.83642 | 66.25001 | 36807 ft | 524 kts | 89° |
| 2026-05-06 11:17 | 23.83623 | 66.32969 | 36811 ft | 524 kts | 89° |
| 2026-05-06 11:17 | 23.83599 | 66.40947 | 36809 ft | 525 kts | 89° |
| 2026-05-06 11:18 | 23.83572 | 66.48913 | 36819 ft | 525 kts | 89° |
| 2026-05-06 11:18 | 23.83541 | 66.56884 | 36812 ft | 525 kts | 89° |
| 2026-05-06 11:19 | 23.83505 | 66.64858 | 36813 ft | 525 kts | 89° |
| 2026-05-06 11:19 | 23.83465 | 66.72847 | 36810 ft | 526 kts | 89° |
| 2026-05-06 11:20 | 23.83422 | 66.80780 | 36810 ft | 526 kts | 89° |
| 2026-05-06 11:20 | 23.83374 | 66.88780 | 36811 ft | 526 kts | 89° |
| 2026-05-06 11:21 | 23.83326 | 66.96780 | 36810 ft | 527 kts | 88° |
| 2026-05-06 11:21 | 23.83940 | 67.04600 | 36806 ft | 523 kts | 77° |
| 2026-05-06 11:22 | 23.85278 | 67.12400 | 36811 ft | 522 kts | 76° |
| 2026-05-06 11:22 | 23.86639 | 67.20205 | 36807 ft | 522 kts | 77° |
| 2026-05-06 11:23 | 23.87953 | 67.28017 | 36811 ft | 523 kts | 77° |
| 2026-05-06 11:23 | 23.89232 | 67.35791 | 36805 ft | 523 kts | 77° |
| 2026-05-06 11:24 | 23.90512 | 67.43621 | 36807 ft | 524 kts | 77° |
| 2026-05-06 11:24 | 23.91792 | 67.51459 | 36811 ft | 524 kts | 77° |
| 2026-05-06 11:25 | 23.93072 | 67.59310 | 36802 ft | 525 kts | 77° |
| 2026-05-06 11:25 | 23.94350 | 67.67181 | 36805 ft | 526 kts | 77° |
| 2026-05-06 11:26 | 23.95628 | 67.75073 | 36796 ft | 527 kts | 77° |
| 2026-05-06 11:26 | 23.96906 | 67.82989 | 36793 ft | 528 kts | 77° |
| 2026-05-06 11:27 | 23.98169 | 67.90844 | 36794 ft | 528 kts | 77° |
| 2026-05-06 11:27 | 23.99437 | 67.98755 | 36786 ft | 528 kts | 77° |
| 2026-05-06 11:28 | 24.00683 | 68.06553 | 36789 ft | 528 kts | 77° |
| 2026-05-06 11:28 | 24.01943 | 68.14465 | 36788 ft | 528 kts | 77° |
| 2026-05-06 11:29 | 24.03198 | 68.22377 | 36788 ft | 528 kts | 77° |
| 2026-05-06 11:29 | 24.04450 | 68.30295 | 36778 ft | 528 kts | 77° |
| 2026-05-06 11:30 | 24.05690 | 68.38162 | 36774 ft | 528 kts | 77° |
| 2026-05-06 11:30 | 24.06933 | 68.46083 | 36775 ft | 528 kts | 77° |
| 2026-05-06 11:31 | 24.08173 | 68.54005 | 36784 ft | 529 kts | 77° |
| 2026-05-06 11:31 | 24.09411 | 68.61944 | 36768 ft | 529 kts | 77° |
| 2026-05-06 11:32 | 24.10647 | 68.69895 | 36758 ft | 530 kts | 77° |
| 2026-05-06 11:32 | 24.11682 | 68.77887 | 36752 ft | 532 kts | 84° |
| 2026-05-06 11:33 | 24.11695 | 68.86019 | 36750 ft | 534 kts | 89° |
| 2026-05-06 11:33 | 24.11502 | 68.94096 | 36759 ft | 534 kts | 89° |
| 2026-05-06 11:34 | 24.11336 | 69.02082 | 36752 ft | 533 kts | 89° |
| 2026-05-06 11:34 | 24.11204 | 69.10214 | 36749 ft | 533 kts | 89° |
| 2026-05-06 11:35 | 24.11081 | 69.18332 | 36740 ft | 533 kts | 89° |
| 2026-05-06 11:35 | 24.10953 | 69.26442 | 36748 ft | 533 kts | 89° |
| 2026-05-06 11:36 | 24.10818 | 69.34572 | 36737 ft | 534 kts | 89° |
| 2026-05-06 11:36 | 24.10676 | 69.42696 | 36740 ft | 534 kts | 89° |
| 2026-05-06 11:37 | 24.10531 | 69.50779 | 36730 ft | 534 kts | 89° |
| 2026-05-06 11:37 | 24.10381 | 69.58921 | 36741 ft | 535 kts | 89° |
| 2026-05-06 11:38 | 24.10227 | 69.67070 | 36736 ft | 536 kts | 89° |
| 2026-05-06 11:38 | 24.10068 | 69.75218 | 36726 ft | 536 kts | 89° |
| 2026-05-06 11:39 | 24.09905 | 69.83378 | 36737 ft | 536 kts | 89° |
| 2026-05-06 11:39 | 24.09766 | 69.90170 | 36730 ft | 537 kts | 89° |
| 2026-05-06 11:40 | 24.09595 | 69.98344 | 36723 ft | 537 kts | 89° |
| 2026-05-06 11:40 | 24.09421 | 70.06400 | 36724 ft | 537 kts | 89° |
| 2026-05-06 11:41 | 24.09241 | 70.14573 | 36729 ft | 537 kts | 89° |
| 2026-05-06 11:41 | 24.09057 | 70.22758 | 36738 ft | 537 kts | 89° |
| 2026-05-06 11:42 | 24.08868 | 70.30942 | 36741 ft | 538 kts | 89° |
| 2026-05-06 11:42 | 24.08674 | 70.39120 | 36743 ft | 538 kts | 89° |
| 2026-05-06 11:43 | 24.08478 | 70.47263 | 36736 ft | 538 kts | 89° |
| 2026-05-06 11:43 | 24.08275 | 70.55465 | 36753 ft | 539 kts | 89° |
| 2026-05-06 11:44 | 24.07963 | 70.67774 | 36739 ft | 539 kts | 89° |
| 2026-05-06 11:44 | 24.07750 | 70.75986 | 36740 ft | 540 kts | 89° |
| 2026-05-06 11:45 | 24.07531 | 70.84205 | 36740 ft | 540 kts | 89° |
| 2026-05-06 11:45 | 24.07309 | 70.92427 | 36743 ft | 541 kts | 89° |
| 2026-05-06 11:46 | 24.07087 | 71.00481 | 36739 ft | 541 kts | 89° |
| 2026-05-06 11:46 | 24.06856 | 71.08714 | 36737 ft | 541 kts | 89° |
| 2026-05-06 11:47 | 24.06622 | 71.16947 | 36740 ft | 541 kts | 89° |
| 2026-05-06 11:47 | 24.06384 | 71.25181 | 36739 ft | 541 kts | 89° |
| 2026-05-06 11:48 | 24.06141 | 71.33420 | 36738 ft | 541 kts | 89° |
| 2026-05-06 11:48 | 24.05894 | 71.41661 | 36737 ft | 541 kts | 89° |
| 2026-05-06 11:49 | 24.05642 | 71.49902 | 36738 ft | 541 kts | 89° |
| 2026-05-06 11:49 | 24.05388 | 71.58084 | 36744 ft | 541 kts | 89° |
| 2026-05-06 11:50 | 24.05128 | 71.66320 | 36731 ft | 542 kts | 89° |
| 2026-05-06 11:50 | 24.04862 | 71.74568 | 36729 ft | 542 kts | 89° |
| 2026-05-06 11:51 | 24.04593 | 71.82812 | 36731 ft | 542 kts | 89° |
| 2026-05-06 11:51 | 24.04319 | 71.91056 | 36740 ft | 542 kts | 89° |
| 2026-05-06 11:52 | 24.04040 | 71.99307 | 36731 ft | 543 kts | 89° |
| 2026-05-06 11:52 | 24.03761 | 72.07441 | 36736 ft | 543 kts | 89° |
| 2026-05-06 11:53 | 24.03473 | 72.15708 | 36742 ft | 543 kts | 89° |
| 2026-05-06 11:53 | 24.03181 | 72.23980 | 36740 ft | 544 kts | 89° |
| 2026-05-06 11:54 | 24.02884 | 72.32248 | 36750 ft | 544 kts | 89° |
| 2026-05-06 11:54 | 24.02585 | 72.40470 | 36753 ft | 544 kts | 89° |
| 2026-05-06 11:55 | 24.02278 | 72.48748 | 36756 ft | 544 kts | 89° |
| 2026-05-06 11:55 | 24.01968 | 72.57026 | 36761 ft | 544 kts | 89° |
| 2026-05-06 11:56 | 24.01654 | 72.65305 | 36764 ft | 544 kts | 89° |
| 2026-05-06 11:56 | 24.01608 | 72.73582 | 36750 ft | 543 kts | 86° |
| 2026-05-06 11:57 | 24.01757 | 72.81828 | 36770 ft | 542 kts | 85° |
| 2026-05-06 11:57 | 24.01902 | 72.90032 | 36767 ft | 542 kts | 86° |
| 2026-05-06 11:58 | 24.02012 | 72.98277 | 36783 ft | 543 kts | 86° |
| 2026-05-06 11:58 | 24.02102 | 73.06406 | 36778 ft | 543 kts | 86° |
| 2026-05-06 11:59 | 24.02190 | 73.14681 | 36780 ft | 543 kts | 86° |
| 2026-05-06 11:59 | 24.02276 | 73.22965 | 36785 ft | 544 kts | 86° |
| 2026-05-06 12:00 | 24.02359 | 73.31243 | 36811 ft | 544 kts | 86° |
| 2026-05-06 12:00 | 24.02437 | 73.39479 | 36795 ft | 545 kts | 86° |
| 2026-05-06 12:01 | 24.02510 | 73.47776 | 36792 ft | 545 kts | 86° |
| 2026-05-06 12:01 | 24.02579 | 73.56072 | 36792 ft | 545 kts | 86° |
| 2026-05-06 12:02 | 24.02644 | 73.64353 | 36797 ft | 544 kts | 86° |
| 2026-05-06 12:02 | 24.02705 | 73.72639 | 36787 ft | 544 kts | 87° |
| 2026-05-06 12:03 | 24.02758 | 73.80926 | 36786 ft | 544 kts | 87° |
| 2026-05-06 12:03 | 24.02805 | 73.89192 | 36797 ft | 544 kts | 87° |
| 2026-05-06 12:04 | 24.02850 | 73.97472 | 36787 ft | 544 kts | 87° |
| 2026-05-06 12:04 | 24.02889 | 74.05579 | 36797 ft | 545 kts | 87° |
| 2026-05-06 12:05 | 24.02954 | 74.13877 | 36800 ft | 546 kts | 86° |
| 2026-05-06 12:05 | 24.03079 | 74.22190 | 36811 ft | 546 kts | 86° |
| 2026-05-06 12:06 | 24.03202 | 74.30511 | 36805 ft | 547 kts | 86° |
| 2026-05-06 12:06 | 24.03308 | 74.38790 | 36822 ft | 548 kts | 86° |
| 2026-05-06 12:07 | 24.03406 | 74.47178 | 36810 ft | 548 kts | 86° |
| 2026-05-06 12:07 | 24.03500 | 74.55472 | 36821 ft | 548 kts | 87° |
| 2026-05-06 12:08 | 24.03592 | 74.63813 | 36815 ft | 548 kts | 87° |
| 2026-05-06 12:08 | 24.03452 | 74.72164 | 36823 ft | 550 kts | 94° |
| 2026-05-06 12:09 | 24.02135 | 74.80399 | 36821 ft | 551 kts | 105° |
| 2026-05-06 12:09 | 23.99878 | 74.88407 | 36823 ft | 551 kts | 107° |
| 2026-05-06 12:10 | 23.97547 | 74.96390 | 36819 ft | 551 kts | 107° |
| 2026-05-06 12:10 | 23.95310 | 75.04213 | 36798 ft | 550 kts | 107° |
| 2026-05-06 12:11 | 23.93054 | 75.12211 | 36817 ft | 549 kts | 107° |
| 2026-05-06 12:11 | 23.90804 | 75.20194 | 36825 ft | 549 kts | 107° |
| 2026-05-06 12:12 | 23.88561 | 75.28118 | 36820 ft | 549 kts | 107° |
| 2026-05-06 12:12 | 23.86300 | 75.36077 | 36813 ft | 548 kts | 107° |
| 2026-05-06 12:13 | 23.84035 | 75.44034 | 36819 ft | 548 kts | 107° |
| 2026-05-06 12:13 | 23.81764 | 75.51994 | 36807 ft | 549 kts | 108° |
| 2026-05-06 12:14 | 23.79490 | 75.59952 | 36809 ft | 549 kts | 108° |
| 2026-05-06 12:14 | 23.77211 | 75.67908 | 36808 ft | 549 kts | 108° |
| 2026-05-06 12:15 | 23.74941 | 75.75814 | 36809 ft | 549 kts | 108° |
| 2026-05-06 12:15 | 23.72654 | 75.83768 | 36790 ft | 549 kts | 108° |
| 2026-05-06 12:16 | 23.70361 | 75.91724 | 36810 ft | 549 kts | 108° |
| 2026-05-06 12:16 | 23.68064 | 75.99676 | 36816 ft | 549 kts | 108° |
| 2026-05-06 12:17 | 23.65783 | 76.07512 | 36812 ft | 549 kts | 108° |
| 2026-05-06 12:17 | 23.63457 | 76.15448 | 36821 ft | 549 kts | 108° |
| 2026-05-06 12:18 | 23.61126 | 76.23391 | 36816 ft | 550 kts | 108° |
| 2026-05-06 12:18 | 23.58792 | 76.31335 | 36815 ft | 549 kts | 108° |
| 2026-05-06 12:19 | 23.56472 | 76.39221 | 36810 ft | 549 kts | 108° |
| 2026-05-06 12:19 | 23.54136 | 76.47145 | 36811 ft | 549 kts | 108° |
| 2026-05-06 12:20 | 23.51793 | 76.55075 | 36823 ft | 549 kts | 109° |
| 2026-05-06 12:20 | 23.49448 | 76.62994 | 36814 ft | 549 kts | 109° |
| 2026-05-06 12:21 | 23.47098 | 76.70914 | 36811 ft | 548 kts | 109° |
| 2026-05-06 12:21 | 23.44749 | 76.78812 | 36813 ft | 548 kts | 109° |
| 2026-05-06 12:22 | 23.42412 | 76.86659 | 36822 ft | 548 kts | 109° |
| 2026-05-06 12:22 | 23.40053 | 76.94559 | 36816 ft | 548 kts | 109° |
| 2026-05-06 12:23 | 23.37723 | 77.02349 | 36815 ft | 548 kts | 109° |
| 2026-05-06 12:23 | 23.35356 | 77.10244 | 36809 ft | 548 kts | 109° |
| 2026-05-06 12:24 | 23.32987 | 77.18134 | 36807 ft | 548 kts | 109° |
| 2026-05-06 12:24 | 23.30629 | 77.25973 | 36811 ft | 549 kts | 109° |
| 2026-05-06 12:25 | 23.28251 | 77.33859 | 36801 ft | 549 kts | 110° |
| 2026-05-06 12:25 | 23.25725 | 77.41683 | 36800 ft | 548 kts | 111° |
| 2026-05-06 12:26 | 23.23525 | 77.48140 | 36781 ft | 547 kts | 112° |
| 2026-05-06 12:26 | 23.20881 | 77.55898 | 36801 ft | 546 kts | 111° |
| 2026-05-06 12:27 | 23.18266 | 77.63652 | 36814 ft | 546 kts | 111° |
| 2026-05-06 12:27 | 23.15658 | 77.71421 | 36805 ft | 546 kts | 111° |
| 2026-05-06 12:28 | 23.13049 | 77.79180 | 36802 ft | 546 kts | 111° |
| 2026-05-06 12:28 | 23.10449 | 77.86891 | 36804 ft | 546 kts | 111° |
| 2026-05-06 12:29 | 23.07831 | 77.94638 | 36803 ft | 546 kts | 112° |
| 2026-05-06 12:29 | 23.05243 | 78.02281 | 36804 ft | 546 kts | 112° |
| 2026-05-06 12:30 | 23.02613 | 78.10034 | 36798 ft | 547 kts | 112° |
| 2026-05-06 12:30 | 22.99982 | 78.17776 | 36803 ft | 547 kts | 112° |
| 2026-05-06 12:31 | 22.97347 | 78.25518 | 36792 ft | 546 kts | 112° |
| 2026-05-06 12:31 | 22.94726 | 78.33203 | 36798 ft | 546 kts | 112° |
| 2026-05-06 12:32 | 22.92089 | 78.40922 | 36808 ft | 545 kts | 112° |
| 2026-05-06 12:32 | 22.89450 | 78.48631 | 36803 ft | 545 kts | 112° |
| 2026-05-06 12:33 | 22.86811 | 78.56330 | 36806 ft | 545 kts | 112° |
| 2026-05-06 12:33 | 22.84168 | 78.64023 | 36809 ft | 544 kts | 112° |
| 2026-05-06 12:34 | 22.81521 | 78.71715 | 36806 ft | 544 kts | 112° |
| 2026-05-06 12:34 | 22.78871 | 78.79401 | 36802 ft | 545 kts | 112° |
| 2026-05-06 12:35 | 22.76216 | 78.87091 | 36809 ft | 545 kts | 112° |
| 2026-05-06 12:35 | 22.73555 | 78.94781 | 36804 ft | 545 kts | 112° |
| 2026-05-06 12:36 | 22.70945 | 79.02313 | 36813 ft | 544 kts | 112° |
| 2026-05-06 12:36 | 22.68283 | 79.09983 | 36813 ft | 544 kts | 112° |
| 2026-05-06 12:37 | 22.65617 | 79.17649 | 36808 ft | 544 kts | 112° |
| 2026-05-06 12:37 | 22.62949 | 79.25306 | 36819 ft | 544 kts | 112° |
| 2026-05-06 12:38 | 22.60275 | 79.32970 | 36819 ft | 544 kts | 112° |
| 2026-05-06 12:38 | 22.57601 | 79.40623 | 36818 ft | 544 kts | 112° |
| 2026-05-06 12:39 | 22.54945 | 79.48238 | 36819 ft | 544 kts | 112° |
| 2026-05-06 12:39 | 22.52288 | 79.55916 | 36814 ft | 545 kts | 112° |
| 2026-05-06 12:40 | 22.49630 | 79.63596 | 36819 ft | 545 kts | 112° |
| 2026-05-06 12:40 | 22.46964 | 79.71272 | 36819 ft | 545 kts | 112° |
| 2026-05-06 12:41 | 22.44289 | 79.78958 | 36801 ft | 545 kts | 112° |
| 2026-05-06 12:41 | 22.41617 | 79.86618 | 36807 ft | 545 kts | 112° |
| 2026-05-06 12:42 | 22.38958 | 79.94230 | 36808 ft | 544 kts | 112° |
| 2026-05-06 12:42 | 22.36319 | 80.01772 | 36809 ft | 544 kts | 112° |
| 2026-05-06 12:43 | 22.33641 | 80.09414 | 36807 ft | 544 kts | 112° |
| 2026-05-06 12:43 | 22.30958 | 80.17055 | 36811 ft | 544 kts | 112° |
| 2026-05-06 12:44 | 22.28275 | 80.24686 | 36812 ft | 543 kts | 112° |
| 2026-05-06 12:44 | 22.25587 | 80.32315 | 36810 ft | 543 kts | 112° |
| 2026-05-06 12:45 | 22.22917 | 80.39886 | 36818 ft | 543 kts | 112° |
| 2026-05-06 12:46 | 22.18875 | 80.51297 | 36822 ft | 542 kts | 112° |
| 2026-05-06 12:46 | 22.16173 | 80.58901 | 36815 ft | 540 kts | 112° |
| 2026-05-06 12:47 | 22.13487 | 80.66455 | 36813 ft | 538 kts | 113° |
| 2026-05-06 12:47 | 22.10808 | 80.73975 | 36819 ft | 536 kts | 113° |
| 2026-05-06 12:48 | 22.08152 | 80.81420 | 36819 ft | 535 kts | 113° |
| 2026-05-06 12:48 | 22.05474 | 80.88914 | 36815 ft | 534 kts | 113° |
| 2026-05-06 12:49 | 22.02798 | 80.96388 | 36816 ft | 535 kts | 113° |
| 2026-05-06 12:49 | 22.00148 | 81.03779 | 36815 ft | 535 kts | 113° |
| 2026-05-06 12:50 | 21.97462 | 81.11258 | 36803 ft | 536 kts | 113° |
| 2026-05-06 12:50 | 21.94769 | 81.18746 | 36801 ft | 536 kts | 113° |
| 2026-05-06 12:51 | 21.92084 | 81.26198 | 36798 ft | 537 kts | 113° |
| 2026-05-06 12:51 | 21.89378 | 81.33697 | 36798 ft | 537 kts | 113° |
| 2026-05-06 12:52 | 21.86667 | 81.41196 | 36793 ft | 537 kts | 113° |
| 2026-05-06 12:52 | 21.83957 | 81.48684 | 36796 ft | 537 kts | 113° |
| 2026-05-06 12:53 | 21.81241 | 81.56176 | 36790 ft | 537 kts | 113° |
| 2026-05-06 12:53 | 21.78532 | 81.63659 | 36792 ft | 537 kts | 112° |
| 2026-05-06 12:54 | 21.76253 | 81.71260 | 36783 ft | 537 kts | 108° |
| 2026-05-06 12:54 | 21.74108 | 81.78968 | 36780 ft | 537 kts | 108° |
| 2026-05-06 12:55 | 21.71931 | 81.86660 | 36776 ft | 537 kts | 109° |
| 2026-05-06 12:55 | 21.69723 | 81.94348 | 36775 ft | 537 kts | 109° |
| 2026-05-06 12:56 | 21.67547 | 82.01915 | 36774 ft | 537 kts | 109° |
| 2026-05-06 12:56 | 21.65320 | 82.09580 | 36775 ft | 537 kts | 109° |
| 2026-05-06 12:57 | 21.63096 | 82.17194 | 36775 ft | 537 kts | 109° |
| 2026-05-06 12:57 | 21.60858 | 82.24855 | 36784 ft | 536 kts | 109° |
| 2026-05-06 12:58 | 21.58625 | 82.32496 | 36782 ft | 535 kts | 109° |
| 2026-05-06 12:58 | 21.56392 | 82.40123 | 36791 ft | 535 kts | 109° |
| 2026-05-06 12:59 | 21.54160 | 82.47729 | 36788 ft | 534 kts | 109° |
| 2026-05-06 12:59 | 21.51940 | 82.55281 | 36793 ft | 533 kts | 109° |
| 2026-05-06 13:00 | 21.49702 | 82.62882 | 36798 ft | 533 kts | 109° |
| 2026-05-06 13:00 | 21.47297 | 82.70396 | 36803 ft | 530 kts | 114° |
| 2026-05-06 13:01 | 21.44479 | 82.77712 | 36813 ft | 530 kts | 115° |
| 2026-05-06 13:01 | 21.41616 | 82.85011 | 36808 ft | 531 kts | 115° |
| 2026-05-06 13:02 | 21.38772 | 82.92345 | 36808 ft | 532 kts | 115° |
| 2026-05-06 13:02 | 21.35939 | 82.99698 | 36805 ft | 533 kts | 115° |
| 2026-05-06 13:03 | 21.33145 | 83.06953 | 36804 ft | 534 kts | 115° |
| 2026-05-06 13:03 | 21.30306 | 83.14305 | 36801 ft | 533 kts | 115° |
| 2026-05-06 13:04 | 21.27464 | 83.21650 | 36799 ft | 533 kts | 115° |
| 2026-05-06 13:04 | 21.24619 | 83.28990 | 36799 ft | 533 kts | 115° |
| 2026-05-06 13:05 | 21.21773 | 83.36321 | 36793 ft | 532 kts | 115° |
| 2026-05-06 13:05 | 21.18929 | 83.43638 | 36792 ft | 532 kts | 115° |
| 2026-05-06 13:06 | 21.16100 | 83.50904 | 36785 ft | 532 kts | 115° |
| 2026-05-06 13:06 | 21.13252 | 83.58209 | 36779 ft | 531 kts | 115° |
| 2026-05-06 13:07 | 21.10405 | 83.65502 | 36779 ft | 530 kts | 115° |
| 2026-05-06 13:07 | 21.07559 | 83.72782 | 36774 ft | 530 kts | 115° |
| 2026-05-06 13:08 | 21.04714 | 83.80050 | 36771 ft | 529 kts | 115° |
| 2026-05-06 13:08 | 21.01866 | 83.87318 | 36753 ft | 529 kts | 115° |
| 2026-05-06 13:09 | 20.99027 | 83.94558 | 36760 ft | 528 kts | 115° |
| 2026-05-06 13:09 | 20.96221 | 84.01706 | 36765 ft | 527 kts | 115° |
| 2026-05-06 13:10 | 20.93379 | 84.08935 | 36763 ft | 527 kts | 115° |
| 2026-05-06 13:10 | 20.90536 | 84.16155 | 36764 ft | 527 kts | 115° |
| 2026-05-06 13:11 | 20.87709 | 84.23325 | 36771 ft | 527 kts | 115° |
| 2026-05-06 13:11 | 20.84859 | 84.30543 | 36769 ft | 527 kts | 115° |
| 2026-05-06 13:12 | 20.82006 | 84.37759 | 36775 ft | 527 kts | 115° |
| 2026-05-06 13:12 | 20.79143 | 84.44987 | 36774 ft | 527 kts | 115° |
| 2026-05-06 13:13 | 20.76275 | 84.52219 | 36780 ft | 528 kts | 115° |
| 2026-05-06 13:13 | 20.73427 | 84.59392 | 36784 ft | 528 kts | 115° |
| 2026-05-06 13:14 | 20.70551 | 84.66623 | 36774 ft | 528 kts | 115° |
| 2026-05-06 13:14 | 20.68166 | 84.72617 | 36780 ft | 526 kts | 115° |
| 2026-05-06 13:15 | 20.65302 | 84.79797 | 36790 ft | 525 kts | 115° |
| 2026-05-06 13:15 | 20.62437 | 84.86970 | 36792 ft | 524 kts | 115° |
| 2026-05-06 13:16 | 20.59583 | 84.94107 | 36792 ft | 524 kts | 115° |
| 2026-05-06 13:16 | 20.56760 | 85.01158 | 36790 ft | 524 kts | 115° |
| 2026-05-06 13:17 | 20.53893 | 85.08310 | 36802 ft | 523 kts | 115° |
| 2026-05-06 13:17 | 20.51021 | 85.15460 | 36783 ft | 522 kts | 115° |
| 2026-05-06 13:18 | 20.48160 | 85.22577 | 36784 ft | 521 kts | 115° |
| 2026-05-06 13:18 | 20.45297 | 85.29687 | 36781 ft | 521 kts | 115° |
| 2026-05-06 13:19 | 20.42458 | 85.36729 | 36799 ft | 520 kts | 115° |
| 2026-05-06 13:19 | 20.39601 | 85.43806 | 36795 ft | 519 kts | 115° |
| 2026-05-06 13:20 | 20.36748 | 85.50863 | 36787 ft | 518 kts | 115° |
| 2026-05-06 13:20 | 20.33894 | 85.57912 | 36788 ft | 517 kts | 115° |
| 2026-05-06 13:21 | 20.31043 | 85.64943 | 36780 ft | 517 kts | 115° |
| 2026-05-06 13:21 | 20.28192 | 85.71968 | 36780 ft | 517 kts | 115° |
| 2026-05-06 13:22 | 20.25336 | 85.78996 | 36776 ft | 517 kts | 115° |
| 2026-05-06 13:22 | 20.22568 | 85.86066 | 36773 ft | 518 kts | 113° |
| 2026-05-06 13:23 | 20.20038 | 85.93199 | 36775 ft | 518 kts | 112° |
| 2026-05-06 13:23 | 20.17521 | 86.00274 | 36785 ft | 518 kts | 113° |
| 2026-05-06 13:24 | 20.14920 | 86.07440 | 36791 ft | 519 kts | 113° |
| 2026-05-06 13:24 | 20.12309 | 86.14600 | 36795 ft | 519 kts | 113° |
| 2026-05-06 13:25 | 20.09704 | 86.21759 | 36799 ft | 519 kts | 113° |
| 2026-05-06 13:25 | 20.07103 | 86.28919 | 36792 ft | 518 kts | 113° |
| 2026-05-06 13:26 | 20.04505 | 86.36066 | 36802 ft | 518 kts | 113° |
| 2026-05-06 13:26 | 20.01919 | 86.43168 | 36805 ft | 517 kts | 114° |
| 2026-05-06 13:27 | 19.99321 | 86.50288 | 36804 ft | 517 kts | 114° |
| 2026-05-06 13:27 | 19.96725 | 86.57393 | 36804 ft | 517 kts | 114° |
| 2026-05-06 13:28 | 19.94123 | 86.64510 | 36808 ft | 517 kts | 114° |
| 2026-05-06 13:28 | 19.91515 | 86.71630 | 36809 ft | 517 kts | 114° |
| 2026-05-06 13:29 | 19.88892 | 86.78751 | 36810 ft | 517 kts | 114° |
| 2026-05-06 13:29 | 19.86262 | 86.85866 | 36814 ft | 517 kts | 114° |
| 2026-05-06 13:30 | 19.83647 | 86.92935 | 36813 ft | 518 kts | 114° |
| 2026-05-06 13:30 | 19.81016 | 87.00043 | 36813 ft | 518 kts | 114° |
| 2026-05-06 13:31 | 19.78407 | 87.07083 | 36813 ft | 518 kts | 114° |
| 2026-05-06 13:31 | 19.75775 | 87.14173 | 36811 ft | 518 kts | 114° |
| 2026-05-06 13:32 | 19.73128 | 87.21296 | 36818 ft | 519 kts | 114° |
| 2026-05-06 13:32 | 19.70476 | 87.28417 | 36580 ft | 521 kts | 112° |
| 2026-05-06 13:33 | 19.67824 | 87.35537 | 36684 ft | 516 kts | 114° |
| 2026-05-06 13:33 | 19.65169 | 87.42651 | 36794 ft | 520 kts | 114° |
| 2026-05-06 13:34 | 19.62487 | 87.49823 | 36822 ft | 525 kts | 114° |
| 2026-05-06 13:34 | 19.59808 | 87.56982 | 36823 ft | 526 kts | 114° |
| 2026-05-06 13:35 | 19.57113 | 87.64177 | 36814 ft | 524 kts | 114° |
| 2026-05-06 13:35 | 19.54427 | 87.71336 | 36815 ft | 521 kts | 114° |
| 2026-05-06 13:36 | 19.51752 | 87.78453 | 36816 ft | 518 kts | 114° |
| 2026-05-06 13:36 | 19.49086 | 87.85536 | 36824 ft | 516 kts | 114° |
| 2026-05-06 13:37 | 19.46428 | 87.92590 | 36823 ft | 515 kts | 114° |
| 2026-05-06 13:37 | 19.43786 | 87.99591 | 36827 ft | 514 kts | 114° |
| 2026-05-06 13:38 | 19.41162 | 88.06533 | 36825 ft | 514 kts | 114° |
| 2026-05-06 13:38 | 19.38498 | 88.13574 | 36828 ft | 514 kts | 114° |
| 2026-05-06 13:39 | 19.35833 | 88.20608 | 36829 ft | 515 kts | 114° |
| 2026-05-06 13:39 | 19.33163 | 88.27647 | 36830 ft | 516 kts | 114° |
| 2026-05-06 13:39 | 19.31820 | 88.31182 | 36965 ft | 519 kts | 114° |
| 2026-05-06 13:40 | 19.30474 | 88.34724 | 37316 ft | 517 kts | 114° |
| 2026-05-06 13:40 | 19.29134 | 88.38248 | 37749 ft | 515 kts | 114° |
| 2026-05-06 13:40 | 19.27801 | 88.41753 | 38157 ft | 512 kts | 114° |
| 2026-05-06 13:40 | 19.26473 | 88.45242 | 38550 ft | 510 kts | 114° |
| 2026-05-06 13:41 | 19.25164 | 88.48678 | 38765 ft | 510 kts | 114° |
| 2026-05-06 13:41 | 19.22479 | 88.55717 | 38825 ft | 512 kts | 114° |
| 2026-05-06 13:42 | 19.19837 | 88.62638 | 38827 ft | 509 kts | 114° |
| 2026-05-06 13:42 | 19.17205 | 88.69576 | 38829 ft | 506 kts | 114° |
| 2026-05-06 13:43 | 19.14668 | 88.76519 | 38830 ft | 505 kts | 113° |
| 2026-05-06 13:43 | 19.12150 | 88.83468 | 38832 ft | 506 kts | 113° |
| 2026-05-06 13:44 | 19.09634 | 88.90374 | 38834 ft | 506 kts | 114° |
| 2026-05-06 13:44 | 19.07087 | 88.97325 | 38837 ft | 507 kts | 114° |
| 2026-05-06 13:45 | 19.04567 | 89.04189 | 38837 ft | 507 kts | 114° |
| 2026-05-06 13:45 | 19.00745 | 89.14580 | 38836 ft | 508 kts | 114° |
| 2026-05-06 13:46 | 18.98186 | 89.21530 | 38834 ft | 508 kts | 114° |
| 2026-05-06 13:46 | 18.95619 | 89.28492 | 38837 ft | 508 kts | 114° |
| 2026-05-06 13:47 | 18.93048 | 89.35453 | 38839 ft | 508 kts | 114° |
| 2026-05-06 13:47 | 18.90476 | 89.42412 | 38837 ft | 508 kts | 114° |
| 2026-05-06 13:48 | 18.87899 | 89.49371 | 38837 ft | 508 kts | 114° |
| 2026-05-06 13:48 | 18.85324 | 89.56320 | 38840 ft | 508 kts | 114° |
| 2026-05-06 13:49 | 18.82766 | 89.63212 | 38839 ft | 508 kts | 114° |
| 2026-05-06 13:49 | 18.80184 | 89.70157 | 38840 ft | 508 kts | 114° |
| 2026-05-06 13:50 | 18.77601 | 89.77099 | 38841 ft | 508 kts | 114° |
| 2026-05-06 13:50 | 18.75018 | 89.84031 | 38839 ft | 508 kts | 114° |
| 2026-05-06 13:51 | 18.72433 | 89.90960 | 38841 ft | 507 kts | 114° |
| 2026-05-06 13:51 | 18.69843 | 89.97891 | 38841 ft | 507 kts | 114° |
| 2026-05-06 13:52 | 18.67287 | 90.04724 | 38836 ft | 508 kts | 114° |
| 2026-05-06 13:52 | 18.64707 | 90.11613 | 38842 ft | 508 kts | 114° |
| 2026-05-06 13:53 | 18.62110 | 90.18537 | 38842 ft | 508 kts | 114° |
| 2026-05-06 13:53 | 18.59507 | 90.25469 | 38843 ft | 508 kts | 114° |
| 2026-05-06 13:54 | 18.56899 | 90.32405 | 38845 ft | 509 kts | 114° |
| 2026-05-06 13:54 | 18.54290 | 90.39336 | 38836 ft | 509 kts | 114° |
| 2026-05-06 13:55 | 18.51675 | 90.46273 | 38845 ft | 509 kts | 114° |
| 2026-05-06 13:55 | 18.49073 | 90.53167 | 38845 ft | 509 kts | 114° |
| 2026-05-06 13:56 | 18.46454 | 90.60099 | 38843 ft | 510 kts | 114° |
| 2026-05-06 13:56 | 18.43826 | 90.67044 | 38839 ft | 510 kts | 114° |
| 2026-05-06 13:57 | 18.41202 | 90.73971 | 38841 ft | 509 kts | 114° |
| 2026-05-06 13:57 | 18.38580 | 90.80884 | 38838 ft | 508 kts | 114° |
| 2026-05-06 13:58 | 18.35953 | 90.87799 | 38845 ft | 508 kts | 114° |
| 2026-05-06 13:58 | 18.33326 | 90.94707 | 38843 ft | 508 kts | 114° |
| 2026-05-06 13:59 | 18.30733 | 91.01518 | 38844 ft | 508 kts | 114° |
| 2026-05-06 13:59 | 18.28103 | 91.08416 | 38848 ft | 508 kts | 114° |
| 2026-05-06 14:00 | 18.25473 | 91.15308 | 38847 ft | 508 kts | 114° |
| 2026-05-06 14:00 | 18.22852 | 91.22166 | 38858 ft | 508 kts | 114° |
| 2026-05-06 14:01 | 18.20211 | 91.29067 | 38854 ft | 508 kts | 114° |
| 2026-05-06 14:01 | 18.17567 | 91.35968 | 38851 ft | 509 kts | 114° |
| 2026-05-06 14:02 | 18.14914 | 91.42884 | 38853 ft | 509 kts | 114° |
| 2026-05-06 14:02 | 18.12279 | 91.49746 | 38853 ft | 509 kts | 114° |
| 2026-05-06 14:03 | 18.09624 | 91.56649 | 38861 ft | 509 kts | 114° |
| 2026-05-06 14:03 | 18.06971 | 91.63542 | 38854 ft | 508 kts | 113° |
| 2026-05-06 14:04 | 18.04318 | 91.70423 | 38852 ft | 508 kts | 114° |
| 2026-05-06 14:04 | 18.02114 | 91.76135 | 38851 ft | 507 kts | 114° |
| 2026-05-06 14:05 | 17.99463 | 91.82999 | 38850 ft | 506 kts | 114° |
| 2026-05-06 14:05 | 17.96814 | 91.89849 | 38852 ft | 506 kts | 114° |
| 2026-05-06 14:06 | 17.94166 | 91.96689 | 38851 ft | 505 kts | 114° |
| 2026-05-06 14:06 | 17.91540 | 92.03431 | 38852 ft | 505 kts | 114° |
| 2026-05-06 14:07 | 17.88861 | 92.10195 | 38852 ft | 505 kts | 114° |
| 2026-05-06 14:07 | 17.86154 | 92.17008 | 38850 ft | 505 kts | 114° |
| 2026-05-06 14:08 | 17.83453 | 92.23814 | 38853 ft | 505 kts | 114° |
| 2026-05-06 14:08 | 17.80753 | 92.30619 | 38849 ft | 505 kts | 114° |
| 2026-05-06 14:09 | 17.78048 | 92.37433 | 38854 ft | 505 kts | 114° |
| 2026-05-06 14:09 | 17.75340 | 92.44242 | 38853 ft | 505 kts | 114° |
| 2026-05-06 14:10 | 17.72626 | 92.51060 | 38847 ft | 505 kts | 114° |
| 2026-05-06 14:10 | 17.69918 | 92.57855 | 38854 ft | 504 kts | 114° |
| 2026-05-06 14:11 | 17.67227 | 92.64599 | 38850 ft | 504 kts | 114° |
| 2026-05-06 14:11 | 17.64522 | 92.71368 | 38852 ft | 503 kts | 114° |
| 2026-05-06 14:12 | 17.61821 | 92.78123 | 38850 ft | 502 kts | 114° |
| 2026-05-06 14:12 | 17.59119 | 92.84869 | 38852 ft | 501 kts | 114° |
| 2026-05-06 14:13 | 17.56419 | 92.91604 | 38851 ft | 501 kts | 114° |
| 2026-05-06 14:13 | 17.53719 | 92.98333 | 38853 ft | 501 kts | 114° |
| 2026-05-06 14:14 | 17.51048 | 93.04979 | 38852 ft | 501 kts | 114° |
| 2026-05-06 14:14 | 17.48341 | 93.11710 | 38853 ft | 501 kts | 114° |
| 2026-05-06 14:15 | 17.45646 | 93.18402 | 38852 ft | 501 kts | 114° |
| 2026-05-06 14:15 | 17.42927 | 93.25146 | 38852 ft | 502 kts | 114° |
| 2026-05-06 14:16 | 17.40208 | 93.31883 | 38852 ft | 502 kts | 114° |
| 2026-05-06 14:16 | 17.37502 | 93.38578 | 38849 ft | 502 kts | 114° |
| 2026-05-06 14:17 | 17.34782 | 93.45302 | 38852 ft | 501 kts | 114° |
| 2026-05-06 14:17 | 17.32064 | 93.52014 | 38846 ft | 500 kts | 114° |
| 2026-05-06 14:18 | 17.29349 | 93.58712 | 38854 ft | 499 kts | 114° |
| 2026-05-06 14:18 | 17.26637 | 93.65394 | 38854 ft | 498 kts | 114° |
| 2026-05-06 14:19 | 17.23925 | 93.72068 | 38854 ft | 498 kts | 114° |
| 2026-05-06 14:19 | 17.21231 | 93.78689 | 38855 ft | 497 kts | 114° |
| 2026-05-06 14:20 | 17.18519 | 93.85349 | 38851 ft | 497 kts | 114° |
| 2026-05-06 14:20 | 17.15801 | 93.92017 | 38856 ft | 497 kts | 114° |
| 2026-05-06 14:21 | 17.13084 | 93.98675 | 38856 ft | 498 kts | 114° |
| 2026-05-06 14:21 | 17.10413 | 94.05212 | 38855 ft | 498 kts | 114° |
| 2026-05-06 14:22 | 17.07688 | 94.11875 | 38852 ft | 499 kts | 114° |
| 2026-05-06 14:22 | 17.04954 | 94.18553 | 38852 ft | 499 kts | 114° |
| 2026-05-06 14:23 | 17.02216 | 94.25231 | 38852 ft | 500 kts | 114° |
| 2026-05-06 14:23 | 16.99482 | 94.31895 | 38852 ft | 499 kts | 114° |
| 2026-05-06 14:24 | 16.96746 | 94.38555 | 38852 ft | 499 kts | 114° |
| 2026-05-06 14:24 | 16.94011 | 94.45207 | 38846 ft | 498 kts | 114° |
| 2026-05-06 14:25 | 16.91279 | 94.51843 | 38849 ft | 497 kts | 114° |
| 2026-05-06 14:25 | 16.88558 | 94.58448 | 38846 ft | 497 kts | 114° |
| 2026-05-06 14:26 | 16.85824 | 94.65076 | 38844 ft | 496 kts | 114° |
| 2026-05-06 14:26 | 16.83092 | 94.71694 | 38848 ft | 496 kts | 114° |
| 2026-05-06 14:27 | 16.80317 | 94.78282 | 38843 ft | 495 kts | 116° |
| 2026-05-06 14:27 | 16.77238 | 94.84704 | 38849 ft | 495 kts | 118° |
| 2026-05-06 14:28 | 16.74083 | 94.91092 | 38840 ft | 495 kts | 118° |
| 2026-05-06 14:28 | 16.70951 | 94.97464 | 38848 ft | 496 kts | 118° |
| 2026-05-06 14:29 | 16.67865 | 95.03787 | 38840 ft | 496 kts | 117° |
| 2026-05-06 14:29 | 16.64738 | 95.10207 | 38841 ft | 496 kts | 117° |
| 2026-05-06 14:30 | 16.61613 | 95.16618 | 38839 ft | 496 kts | 117° |
| 2026-05-06 14:30 | 16.58484 | 95.23027 | 38836 ft | 496 kts | 117° |
| 2026-05-06 14:31 | 16.55344 | 95.29451 | 38842 ft | 496 kts | 117° |
| 2026-05-06 14:31 | 16.52210 | 95.35856 | 38841 ft | 496 kts | 117° |
| 2026-05-06 14:32 | 16.49094 | 95.42220 | 38836 ft | 495 kts | 117° |
| 2026-05-06 14:32 | 16.45960 | 95.48613 | 38838 ft | 495 kts | 117° |
| 2026-05-06 14:33 | 16.42829 | 95.54994 | 38837 ft | 495 kts | 118° |
| 2026-05-06 14:33 | 16.39693 | 95.61379 | 38840 ft | 494 kts | 118° |
| 2026-05-06 14:34 | 16.36560 | 95.67752 | 38841 ft | 494 kts | 118° |
| 2026-05-06 14:34 | 16.33425 | 95.74124 | 38846 ft | 494 kts | 117° |
| 2026-05-06 14:35 | 16.30312 | 95.80446 | 38836 ft | 493 kts | 118° |
| 2026-05-06 14:35 | 16.27183 | 95.86793 | 38839 ft | 493 kts | 118° |
| 2026-05-06 14:36 | 16.24052 | 95.93138 | 38841 ft | 493 kts | 117° |
| 2026-05-06 14:36 | 16.20911 | 95.99499 | 38843 ft | 493 kts | 118° |
| 2026-05-06 14:37 | 16.17818 | 96.05757 | 38835 ft | 493 kts | 118° |
| 2026-05-06 14:37 | 16.14680 | 96.12100 | 38844 ft | 493 kts | 118° |
| 2026-05-06 14:38 | 16.11537 | 96.18446 | 38847 ft | 494 kts | 118° |
| 2026-05-06 14:38 | 16.08394 | 96.24786 | 38847 ft | 493 kts | 118° |
| 2026-05-06 14:39 | 16.05248 | 96.31128 | 38847 ft | 493 kts | 118° |
| 2026-05-06 14:39 | 16.02102 | 96.37464 | 38842 ft | 493 kts | 118° |
| 2026-05-06 14:40 | 15.98963 | 96.43779 | 38850 ft | 493 kts | 118° |
| 2026-05-06 14:40 | 15.95815 | 96.50107 | 38855 ft | 492 kts | 118° |
| 2026-05-06 14:41 | 15.92670 | 96.56424 | 38847 ft | 492 kts | 118° |
| 2026-05-06 14:41 | 15.89545 | 96.62695 | 38850 ft | 491 kts | 118° |
| 2026-05-06 14:42 | 15.86403 | 96.68994 | 38847 ft | 490 kts | 118° |
| 2026-05-06 14:42 | 15.83270 | 96.75270 | 38850 ft | 489 kts | 118° |
| 2026-05-06 14:43 | 15.80138 | 96.81539 | 38851 ft | 488 kts | 118° |
| 2026-05-06 14:43 | 15.77008 | 96.87797 | 38853 ft | 488 kts | 118° |
| 2026-05-06 14:44 | 15.73879 | 96.94048 | 38851 ft | 488 kts | 118° |
| 2026-05-06 14:45 | 15.69229 | 97.03328 | 38852 ft | 488 kts | 118° |
| 2026-05-06 14:45 | 15.66092 | 97.09580 | 38852 ft | 488 kts | 118° |
| 2026-05-06 14:46 | 15.62957 | 97.15826 | 38858 ft | 488 kts | 118° |
| 2026-05-06 14:46 | 15.59836 | 97.22035 | 38854 ft | 489 kts | 118° |
| 2026-05-06 14:47 | 15.56691 | 97.28288 | 38853 ft | 489 kts | 118° |
| 2026-05-06 14:47 | 15.53543 | 97.34542 | 38856 ft | 489 kts | 118° |
| 2026-05-06 14:48 | 15.50393 | 97.40795 | 38853 ft | 489 kts | 118° |
| 2026-05-06 14:48 | 15.47241 | 97.47046 | 38856 ft | 489 kts | 118° |
| 2026-05-06 14:49 | 15.44088 | 97.53293 | 38854 ft | 489 kts | 118° |
| 2026-05-06 14:49 | 15.41461 | 97.58494 | 38856 ft | 489 kts | 118° |
| 2026-05-06 14:50 | 15.38305 | 97.64738 | 38856 ft | 489 kts | 118° |
| 2026-05-06 14:50 | 15.35147 | 97.70980 | 38858 ft | 489 kts | 118° |
| 2026-05-06 14:51 | 15.31982 | 97.77232 | 38867 ft | 490 kts | 118° |
| 2026-05-06 14:51 | 15.28817 | 97.83476 | 38869 ft | 490 kts | 118° |
| 2026-05-06 14:52 | 15.25669 | 97.89683 | 38877 ft | 490 kts | 118° |
| 2026-05-06 14:52 | 15.22483 | 97.95959 | 38872 ft | 490 kts | 118° |
| 2026-05-06 14:53 | 15.19429 | 98.01971 | 38877 ft | 490 kts | 118° |
| 2026-05-06 14:53 | 15.16253 | 98.08219 | 38883 ft | 490 kts | 118° |
| 2026-05-06 14:54 | 15.13086 | 98.14445 | 38885 ft | 490 kts | 118° |
| 2026-05-06 14:54 | 15.09901 | 98.20699 | 38886 ft | 490 kts | 118° |
| 2026-05-06 14:55 | 15.06764 | 98.26953 | 38887 ft | 490 kts | 117° |
| 2026-05-06 14:55 | 15.03659 | 98.33224 | 38889 ft | 490 kts | 117° |
| 2026-05-06 14:56 | 15.00554 | 98.39486 | 38905 ft | 488 kts | 117° |
| 2026-05-06 14:56 | 14.97477 | 98.45674 | 38894 ft | 485 kts | 117° |
| 2026-05-06 14:57 | 14.94410 | 98.51829 | 38902 ft | 482 kts | 117° |
| 2026-05-06 14:57 | 14.91322 | 98.58021 | 38909 ft | 480 kts | 117° |
| 2026-05-06 14:58 | 14.88289 | 98.64098 | 38914 ft | 479 kts | 117° |
| 2026-05-06 14:58 | 14.85239 | 98.70205 | 38922 ft | 479 kts | 117° |
| 2026-05-06 14:59 | 14.82173 | 98.76338 | 38915 ft | 481 kts | 117° |
| 2026-05-06 14:59 | 14.79093 | 98.82494 | 38932 ft | 483 kts | 117° |
| 2026-05-06 15:00 | 14.75992 | 98.88688 | 38927 ft | 485 kts | 117° |
| 2026-05-06 15:00 | 14.72895 | 98.94869 | 38927 ft | 487 kts | 116° |
| 2026-05-06 15:01 | 14.69934 | 99.00773 | 38923 ft | 488 kts | 117° |
| 2026-05-06 15:01 | 14.66809 | 99.07000 | 38918 ft | 488 kts | 117° |
| 2026-05-06 15:02 | 14.63703 | 99.13184 | 38904 ft | 488 kts | 117° |
| 2026-05-06 15:02 | 14.60561 | 99.19434 | 38917 ft | 489 kts | 117° |
| 2026-05-06 15:03 | 14.57421 | 99.25675 | 38904 ft | 490 kts | 117° |
| 2026-05-06 15:03 | 14.54278 | 99.31919 | 38902 ft | 491 kts | 117° |
| 2026-05-06 15:04 | 14.51128 | 99.38171 | 38897 ft | 491 kts | 117° |
| 2026-05-06 15:04 | 14.47992 | 99.44392 | 38892 ft | 491 kts | 117° |
| 2026-05-06 15:05 | 14.45085 | 99.50730 | 38884 ft | 490 kts | 108° |
| 2026-05-06 15:05 | 14.43502 | 99.57519 | 38834 ft | 487 kts | 96° |
| 2026-05-06 15:05 | 14.43221 | 99.60980 | 38594 ft | 484 kts | 93° |
| 2026-05-06 15:06 | 14.43029 | 99.64427 | 38058 ft | 482 kts | 92° |
| 2026-05-06 15:06 | 14.42855 | 99.67888 | 37256 ft | 484 kts | 92° |
| 2026-05-06 15:06 | 14.42672 | 99.71401 | 36334 ft | 488 kts | 92° |
| 2026-05-06 15:06 | 14.42474 | 99.74881 | 35463 ft | 491 kts | 92° |
| 2026-05-06 15:07 | 14.42260 | 99.78384 | 34636 ft | 493 kts | 93° |
| 2026-05-06 15:07 | 14.42033 | 99.81936 | 33815 ft | 495 kts | 93° |
| 2026-05-06 15:07 | 14.41806 | 99.85447 | 32844 ft | 497 kts | 93° |
| 2026-05-06 15:07 | 14.41570 | 99.89066 | 31825 ft | 500 kts | 93° |
| 2026-05-06 15:08 | 14.41338 | 99.92621 | 31062 ft | 498 kts | 93° |
| 2026-05-06 15:08 | 14.41108 | 99.96160 | 30506 ft | 491 kts | 93° |
| 2026-05-06 15:08 | 14.40884 | 99.99625 | 30004 ft | 485 kts | 92° |
| 2026-05-06 15:08 | 14.40687 | 100.02656 | 29584 ft | 478 kts | 92° |
| 2026-05-06 15:09 | 14.40469 | 100.05985 | 29274 ft | 466 kts | 94° |
| 2026-05-06 15:09 | 14.39866 | 100.09218 | 28927 ft | 457 kts | 109° |
| 2026-05-06 15:09 | 14.38456 | 100.12110 | 28601 ft | 449 kts | 124° |
| 2026-05-06 15:09 | 14.36395 | 100.14505 | 28196 ft | 444 kts | 139° |
| 2026-05-06 15:10 | 14.33867 | 100.16258 | 27695 ft | 441 kts | 153° |
| 2026-05-06 15:10 | 14.30969 | 100.17303 | 27154 ft | 439 kts | 168° |
| 2026-05-06 15:10 | 14.27917 | 100.17547 | 26617 ft | 438 kts | 183° |
| 2026-05-06 15:10 | 14.24970 | 100.16994 | 26108 ft | 435 kts | 198° |
| 2026-05-06 15:11 | 14.22354 | 100.15758 | 25642 ft | 432 kts | 212° |
| 2026-05-06 15:11 | 14.20039 | 100.13836 | 25182 ft | 428 kts | 227° |
| 2026-05-06 15:11 | 14.18274 | 100.11397 | 24702 ft | 425 kts | 242° |
| 2026-05-06 15:11 | 14.17091 | 100.08648 | 24260 ft | 421 kts | 252° |
| 2026-05-06 15:12 | 14.16451 | 100.05726 | 23788 ft | 418 kts | 266° |
| 2026-05-06 15:12 | 14.16537 | 100.02725 | 23303 ft | 414 kts | 275° |
| 2026-05-06 15:12 | 14.16748 | 99.99806 | 22790 ft | 412 kts | 275° |
| 2026-05-06 15:12 | 14.16940 | 99.96879 | 22327 ft | 409 kts | 274° |